sensor_id;sensor_type;location;lat;lon;timestamp;P1;durP1;ratioP1;P2;durP2;ratioP2
38779;SDS011;29273;49.962;9.768;2023-06-10T00:02:20;3.05;;;2.75;;
38779;SDS011;29273;49.962;9.768;2023-06-10T00:04:46;2.67;;;2.47;;
38779;SDS011;29273;49.962;9.768;2023-06-10T00:07:12;3.20;;;2.90;;
38779;SDS011;29273;49.962;9.768;2023-06-10T00:09:38;3.30;;;2.88;;
38779;SDS011;29273;49.962;9.768;2023-06-10T00:12:07;3.35;;;3.05;;
38779;SDS011;29273;49.962;9.768;2023-06-10T00:14:38;3.00;;;2.70;;
38779;SDS011;29273;49.962;9.768;2023-06-10T00:17:06;3.35;;;2.80;;
38779;SDS011;29273;49.962;9.768;2023-06-10T00:19:35;3.28;;;2.78;;
38779;SDS011;29273;49.962;9.768;2023-06-10T00:22:07;2.80;;;2.60;;
38779;SDS011;29273;49.962;9.768;2023-06-10T00:24:33;4.18;;;3.00;;
38779;SDS011;29273;49.962;9.768;2023-06-10T00:26:59;3.20;;;2.83;;
38779;SDS011;29273;49.962;9.768;2023-06-10T00:29:24;3.90;;;2.70;;
38779;SDS011;29273;49.962;9.768;2023-06-10T00:31:50;3.40;;;3.00;;
38779;SDS011;29273;49.962;9.768;2023-06-10T00:34:18;3.17;;;2.88;;
38779;SDS011;29273;49.962;9.768;2023-06-10T00:36:44;3.00;;;2.80;;
38779;SDS011;29273;49.962;9.768;2023-06-10T00:39:10;3.30;;;3.00;;
38779;SDS011;29273;49.962;9.768;2023-06-10T00:41:36;2.65;;;2.40;;
38779;SDS011;29273;49.962;9.768;2023-06-10T00:44:01;4.03;;;2.88;;
38779;SDS011;29273;49.962;9.768;2023-06-10T00:46:27;3.25;;;2.72;;
38779;SDS011;29273;49.962;9.768;2023-06-10T00:48:54;3.10;;;2.80;;
38779;SDS011;29273;49.962;9.768;2023-06-10T00:51:20;3.03;;;2.72;;
38779;SDS011;29273;49.962;9.768;2023-06-10T00:53:47;3.88;;;2.90;;
38779;SDS011;29273;49.962;9.768;2023-06-10T00:56:13;3.50;;;2.95;;
38779;SDS011;29273;49.962;9.768;2023-06-10T00:58:39;3.75;;;3.03;;
38779;SDS011;29273;49.962;9.768;2023-06-10T01:01:05;3.13;;;2.83;;
38779;SDS011;29273;49.962;9.768;2023-06-10T01:03:30;3.30;;;3.00;;
38779;SDS011;29273;49.962;9.768;2023-06-10T01:05:59;3.42;;;3.13;;
38779;SDS011;29273;49.962;9.768;2023-06-10T01:11:00;2.95;;;2.75;;
38779;SDS011;29273;49.962;9.768;2023-06-10T01:13:29;3.33;;;3.03;;
38779;SDS011;29273;49.962;9.768;2023-06-10T01:15:57;3.90;;;3.40;;
38779;SDS011;29273;49.962;9.768;2023-06-10T01:18:23;3.40;;;3.03;;
38779;SDS011;29273;49.962;9.768;2023-06-10T01:20:48;3.35;;;3.03;;
38779;SDS011;29273;49.962;9.768;2023-06-10T01:23:15;3.03;;;2.72;;
38779;SDS011;29273;49.962;9.768;2023-06-10T01:25:41;3.53;;;3.22;;
38779;SDS011;29273;49.962;9.768;2023-06-10T01:28:14;3.03;;;2.78;;
38779;SDS011;29273;49.962;9.768;2023-06-10T01:33:33;3.05;;;2.85;;
38779;SDS011;29273;49.962;9.768;2023-06-10T01:36:01;3.22;;;2.92;;
38779;SDS011;29273;49.962;9.768;2023-06-10T01:38:30;2.90;;;2.65;;
38779;SDS011;29273;49.962;9.768;2023-06-10T01:40:58;2.70;;;2.50;;
38779;SDS011;29273;49.962;9.768;2023-06-10T01:43:25;2.92;;;2.72;;
38779;SDS011;29273;49.962;9.768;2023-06-10T01:45:51;4.20;;;3.00;;
38779;SDS011;29273;49.962;9.768;2023-06-10T01:48:16;3.60;;;3.22;;
38779;SDS011;29273;49.962;9.768;2023-06-10T01:50:42;3.30;;;3.00;;
38779;SDS011;29273;49.962;9.768;2023-06-10T01:53:09;3.95;;;3.53;;
38779;SDS011;29273;49.962;9.768;2023-06-10T01:55:35;3.30;;;2.88;;
38779;SDS011;29273;49.962;9.768;2023-06-10T01:58:00;3.67;;;3.17;;
38779;SDS011;29273;49.962;9.768;2023-06-10T02:00:26;3.42;;;3.03;;
38779;SDS011;29273;49.962;9.768;2023-06-10T02:02:51;3.92;;;3.20;;
38779;SDS011;29273;49.962;9.768;2023-06-10T02:05:17;3.22;;;2.83;;
38779;SDS011;29273;49.962;9.768;2023-06-10T02:07:42;3.72;;;2.88;;
38779;SDS011;29273;49.962;9.768;2023-06-10T02:10:08;3.15;;;2.85;;
38779;SDS011;29273;49.962;9.768;2023-06-10T02:12:33;3.35;;;3.05;;
38779;SDS011;29273;49.962;9.768;2023-06-10T02:14:59;4.32;;;3.28;;
38779;SDS011;29273;49.962;9.768;2023-06-10T02:17:24;3.63;;;3.33;;
38779;SDS011;29273;49.962;9.768;2023-06-10T02:19:50;3.10;;;2.80;;
38779;SDS011;29273;49.962;9.768;2023-06-10T02:22:19;3.10;;;2.80;;
38779;SDS011;29273;49.962;9.768;2023-06-10T02:24:45;3.97;;;3.20;;
38779;SDS011;29273;49.962;9.768;2023-06-10T02:27:11;3.53;;;3.17;;
38779;SDS011;29273;49.962;9.768;2023-06-10T02:29:36;3.20;;;2.90;;
38779;SDS011;29273;49.962;9.768;2023-06-10T02:32:03;3.78;;;3.05;;
38779;SDS011;29273;49.962;9.768;2023-06-10T02:34:29;3.10;;;2.80;;
38779;SDS011;29273;49.962;9.768;2023-06-10T02:36:55;4.15;;;3.58;;
38779;SDS011;29273;49.962;9.768;2023-06-10T02:39:21;3.35;;;3.05;;
38779;SDS011;29273;49.962;9.768;2023-06-10T02:41:47;3.65;;;3.05;;
38779;SDS011;29273;49.962;9.768;2023-06-10T02:44:15;3.58;;;2.78;;
38779;SDS011;29273;49.962;9.768;2023-06-10T02:46:41;3.55;;;3.03;;
38779;SDS011;29273;49.962;9.768;2023-06-10T02:49:06;4.13;;;3.17;;
38779;SDS011;29273;49.962;9.768;2023-06-10T02:51:32;4.18;;;3.60;;
38779;SDS011;29273;49.962;9.768;2023-06-10T02:54:01;3.15;;;2.85;;
38779;SDS011;29273;49.962;9.768;2023-06-10T02:56:26;4.00;;;3.40;;
38779;SDS011;29273;49.962;9.768;2023-06-10T02:58:54;3.25;;;2.90;;
38779;SDS011;29273;49.962;9.768;2023-06-10T03:01:21;3.45;;;2.92;;
38779;SDS011;29273;49.962;9.768;2023-06-10T03:03:59;3.03;;;2.78;;
38779;SDS011;29273;49.962;9.768;2023-06-10T03:06:25;3.15;;;2.85;;
38779;SDS011;29273;49.962;9.768;2023-06-10T03:08:55;3.45;;;3.15;;
38779;SDS011;29273;49.962;9.768;2023-06-10T03:11:21;10.05;;;3.58;;
38779;SDS011;29273;49.962;9.768;2023-06-10T03:13:47;3.40;;;3.10;;
38779;SDS011;29273;49.962;9.768;2023-06-10T03:16:15;3.70;;;3.40;;
38779;SDS011;29273;49.962;9.768;2023-06-10T03:18:42;3.05;;;2.75;;
38779;SDS011;29273;49.962;9.768;2023-06-10T03:21:07;3.42;;;3.13;;
38779;SDS011;29273;49.962;9.768;2023-06-10T03:23:34;3.75;;;3.45;;
38779;SDS011;29273;49.962;9.768;2023-06-10T03:26:00;3.63;;;3.33;;
38779;SDS011;29273;49.962;9.768;2023-06-10T03:28:26;3.47;;;3.17;;
38779;SDS011;29273;49.962;9.768;2023-06-10T03:30:52;3.08;;;2.78;;
38779;SDS011;29273;49.962;9.768;2023-06-10T03:33:18;3.40;;;3.10;;
38779;SDS011;29273;49.962;9.768;2023-06-10T03:35:44;4.13;;;3.25;;
38779;SDS011;29273;49.962;9.768;2023-06-10T03:38:11;3.20;;;2.90;;
38779;SDS011;29273;49.962;9.768;2023-06-10T03:40:37;3.55;;;3.25;;
38779;SDS011;29273;49.962;9.768;2023-06-10T03:43:03;3.80;;;2.83;;
38779;SDS011;29273;49.962;9.768;2023-06-10T03:45:30;3.90;;;2.97;;
38779;SDS011;29273;49.962;9.768;2023-06-10T03:47:56;3.35;;;3.05;;
38779;SDS011;29273;49.962;9.768;2023-06-10T03:50:26;3.30;;;2.75;;
38779;SDS011;29273;49.962;9.768;2023-06-10T03:52:52;3.70;;;3.40;;
38779;SDS011;29273;49.962;9.768;2023-06-10T03:55:21;3.78;;;3.47;;
38779;SDS011;29273;49.962;9.768;2023-06-10T03:57:48;4.22;;;3.40;;
38779;SDS011;29273;49.962;9.768;2023-06-10T04:00:15;3.65;;;3.35;;
38779;SDS011;29273;49.962;9.768;2023-06-10T04:02:42;4.03;;;3.30;;
38779;SDS011;29273;49.962;9.768;2023-06-10T04:05:15;3.60;;;3.30;;
38779;SDS011;29273;49.962;9.768;2023-06-10T04:07:42;3.65;;;3.20;;
38779;SDS011;29273;49.962;9.768;2023-06-10T04:10:10;3.60;;;3.17;;
38779;SDS011;29273;49.962;9.768;2023-06-10T04:12:37;3.58;;;3.28;;
38779;SDS011;29273;49.962;9.768;2023-06-10T04:15:03;3.28;;;2.97;;
38779;SDS011;29273;49.962;9.768;2023-06-10T04:17:29;3.78;;;3.47;;
38779;SDS011;29273;49.962;9.768;2023-06-10T04:19:55;3.50;;;3.08;;
38779;SDS011;29273;49.962;9.768;2023-06-10T04:22:21;3.42;;;3.13;;
38779;SDS011;29273;49.962;9.768;2023-06-10T04:24:48;3.45;;;2.90;;
38779;SDS011;29273;49.962;9.768;2023-06-10T04:27:13;3.17;;;2.88;;
38779;SDS011;29273;49.962;9.768;2023-06-10T04:29:39;3.90;;;3.50;;
38779;SDS011;29273;49.962;9.768;2023-06-10T04:32:06;3.13;;;2.83;;
38779;SDS011;29273;49.962;9.768;2023-06-10T04:34:35;6.82;;;3.22;;
38779;SDS011;29273;49.962;9.768;2023-06-10T04:37:04;3.50;;;3.20;;
38779;SDS011;29273;49.962;9.768;2023-06-10T04:39:30;3.90;;;3.30;;
38779;SDS011;29273;49.962;9.768;2023-06-10T04:41:56;3.75;;;3.03;;
38779;SDS011;29273;49.962;9.768;2023-06-10T04:44:22;3.35;;;3.05;;
38779;SDS011;29273;49.962;9.768;2023-06-10T04:46:48;3.80;;;3.50;;
38779;SDS011;29273;49.962;9.768;2023-06-10T04:49:13;3.45;;;3.15;;
38779;SDS011;29273;49.962;9.768;2023-06-10T04:51:40;4.00;;;3.50;;
38779;SDS011;29273;49.962;9.768;2023-06-10T04:54:07;3.80;;;3.50;;
38779;SDS011;29273;49.962;9.768;2023-06-10T04:56:32;3.88;;;3.42;;
38779;SDS011;29273;49.962;9.768;2023-06-10T04:58:58;3.67;;;3.28;;
38779;SDS011;29273;49.962;9.768;2023-06-10T05:01:24;3.55;;;3.25;;
38779;SDS011;29273;49.962;9.768;2023-06-10T05:03:50;3.67;;;3.35;;
38779;SDS011;29273;49.962;9.768;2023-06-10T05:06:15;4.30;;;3.58;;
38779;SDS011;29273;49.962;9.768;2023-06-10T05:08:40;3.42;;;3.13;;
38779;SDS011;29273;49.962;9.768;2023-06-10T05:11:06;3.60;;;3.30;;
38779;SDS011;29273;49.962;9.768;2023-06-10T05:13:31;3.60;;;3.20;;
38779;SDS011;29273;49.962;9.768;2023-06-10T05:15:57;3.30;;;3.00;;
38779;SDS011;29273;49.962;9.768;2023-06-10T05:18:23;3.40;;;3.10;;
38779;SDS011;29273;49.962;9.768;2023-06-10T05:20:48;3.95;;;3.50;;
38779;SDS011;29273;49.962;9.768;2023-06-10T05:23:14;3.50;;;3.20;;
38779;SDS011;29273;49.962;9.768;2023-06-10T05:25:40;3.67;;;3.38;;
38779;SDS011;29273;49.962;9.768;2023-06-10T05:28:06;3.38;;;3.08;;
38779;SDS011;29273;49.962;9.768;2023-06-10T05:30:35;3.28;;;2.97;;
38779;SDS011;29273;49.962;9.768;2023-06-10T05:33:02;3.47;;;3.17;;
38779;SDS011;29273;49.962;9.768;2023-06-10T05:35:29;3.58;;;3.28;;
38779;SDS011;29273;49.962;9.768;2023-06-10T05:37:54;3.67;;;3.35;;
38779;SDS011;29273;49.962;9.768;2023-06-10T05:40:20;4.32;;;3.45;;
38779;SDS011;29273;49.962;9.768;2023-06-10T05:42:45;4.22;;;3.20;;
38779;SDS011;29273;49.962;9.768;2023-06-10T05:45:11;3.65;;;3.35;;
38779;SDS011;29273;49.962;9.768;2023-06-10T05:47:36;3.58;;;3.28;;
38779;SDS011;29273;49.962;9.768;2023-06-10T05:50:02;4.65;;;3.63;;
38779;SDS011;29273;49.962;9.768;2023-06-10T05:52:28;3.42;;;3.13;;
38779;SDS011;29273;49.962;9.768;2023-06-10T05:54:53;3.60;;;3.13;;
38779;SDS011;29273;49.962;9.768;2023-06-10T05:57:19;3.70;;;3.40;;
38779;SDS011;29273;49.962;9.768;2023-06-10T05:59:45;4.25;;;3.60;;
38779;SDS011;29273;49.962;9.768;2023-06-10T06:02:10;3.30;;;3.00;;
38779;SDS011;29273;49.962;9.768;2023-06-10T06:04:36;3.45;;;3.15;;
38779;SDS011;29273;49.962;9.768;2023-06-10T06:07:01;3.55;;;3.00;;
38779;SDS011;29273;49.962;9.768;2023-06-10T06:09:27;3.53;;;3.22;;
38779;SDS011;29273;49.962;9.768;2023-06-10T06:11:52;4.07;;;3.20;;
38779;SDS011;29273;49.962;9.768;2023-06-10T06:14:18;2.90;;;2.70;;
38779;SDS011;29273;49.962;9.768;2023-06-10T06:16:43;3.08;;;2.78;;
38779;SDS011;29273;49.962;9.768;2023-06-10T06:19:09;3.20;;;2.80;;
38779;SDS011;29273;49.962;9.768;2023-06-10T06:21:36;2.95;;;2.72;;
38779;SDS011;29273;49.962;9.768;2023-06-10T06:24:01;3.72;;;3.33;;
38779;SDS011;29273;49.962;9.768;2023-06-10T06:26:27;3.15;;;2.85;;
38779;SDS011;29273;49.962;9.768;2023-06-10T06:28:52;3.35;;;3.05;;
38779;SDS011;29273;49.962;9.768;2023-06-10T06:31:18;3.40;;;3.00;;
38779;SDS011;29273;49.962;9.768;2023-06-10T06:33:43;5.03;;;2.88;;
38779;SDS011;29273;49.962;9.768;2023-06-10T06:36:09;3.22;;;2.92;;
38779;SDS011;29273;49.962;9.768;2023-06-10T06:38:34;4.32;;;3.17;;
38779;SDS011;29273;49.962;9.768;2023-06-10T06:41:00;3.17;;;2.95;;
38779;SDS011;29273;49.962;9.768;2023-06-10T06:43:31;3.30;;;3.00;;
38779;SDS011;29273;49.962;9.768;2023-06-10T06:46:08;3.10;;;2.88;;
38779;SDS011;29273;49.962;9.768;2023-06-10T06:48:34;3.10;;;2.80;;
38779;SDS011;29273;49.962;9.768;2023-06-10T06:51:00;3.22;;;2.92;;
38779;SDS011;29273;49.962;9.768;2023-06-10T06:53:25;3.70;;;3.40;;
38779;SDS011;29273;49.962;9.768;2023-06-10T06:55:50;3.05;;;2.83;;
38779;SDS011;29273;49.962;9.768;2023-06-10T06:58:16;3.20;;;2.90;;
38779;SDS011;29273;49.962;9.768;2023-06-10T07:00:42;3.47;;;3.17;;
38779;SDS011;29273;49.962;9.768;2023-06-10T07:03:07;3.47;;;3.00;;
38779;SDS011;29273;49.962;9.768;2023-06-10T07:05:33;3.50;;;3.20;;
38779;SDS011;29273;49.962;9.768;2023-06-10T07:07:58;3.75;;;3.35;;
38779;SDS011;29273;49.962;9.768;2023-06-10T07:10:24;3.00;;;2.75;;
38779;SDS011;29273;49.962;9.768;2023-06-10T07:12:51;3.45;;;3.15;;
38779;SDS011;29273;49.962;9.768;2023-06-10T07:15:16;3.83;;;3.33;;
38779;SDS011;29273;49.962;9.768;2023-06-10T07:17:43;3.50;;;3.08;;
38779;SDS011;29273;49.962;9.768;2023-06-10T07:20:09;3.60;;;2.90;;
38779;SDS011;29273;49.962;9.768;2023-06-10T07:22:35;3.45;;;3.00;;
38779;SDS011;29273;49.962;9.768;2023-06-10T07:25:01;3.42;;;3.13;;
38779;SDS011;29273;49.962;9.768;2023-06-10T07:27:27;3.25;;;2.95;;
38779;SDS011;29273;49.962;9.768;2023-06-10T07:29:52;3.35;;;3.03;;
38779;SDS011;29273;49.962;9.768;2023-06-10T07:32:18;3.50;;;3.20;;
38779;SDS011;29273;49.962;9.768;2023-06-10T07:34:45;2.90;;;2.65;;
38779;SDS011;29273;49.962;9.768;2023-06-10T07:37:11;3.53;;;3.22;;
38779;SDS011;29273;49.962;9.768;2023-06-10T07:39:36;3.22;;;2.92;;
38779;SDS011;29273;49.962;9.768;2023-06-10T07:42:02;3.15;;;2.63;;
38779;SDS011;29273;49.962;9.768;2023-06-10T07:44:28;2.80;;;2.60;;
38779;SDS011;29273;49.962;9.768;2023-06-10T07:46:54;3.15;;;2.85;;
38779;SDS011;29273;49.962;9.768;2023-06-10T07:49:19;3.40;;;3.10;;
38779;SDS011;29273;49.962;9.768;2023-06-10T07:51:44;2.78;;;2.58;;
38779;SDS011;29273;49.962;9.768;2023-06-10T07:54:10;3.25;;;2.95;;
38779;SDS011;29273;49.962;9.768;2023-06-10T07:56:37;3.20;;;2.90;;
38779;SDS011;29273;49.962;9.768;2023-06-10T07:59:03;2.83;;;2.63;;
38779;SDS011;29273;49.962;9.768;2023-06-10T08:01:28;3.05;;;2.70;;
38779;SDS011;29273;49.962;9.768;2023-06-10T08:03:55;2.40;;;2.20;;
38779;SDS011;29273;49.962;9.768;2023-06-10T08:06:20;3.75;;;2.88;;
38779;SDS011;29273;49.962;9.768;2023-06-10T08:08:46;2.97;;;2.75;;
38779;SDS011;29273;49.962;9.768;2023-06-10T08:11:12;2.72;;;2.53;;
38779;SDS011;29273;49.962;9.768;2023-06-10T08:13:38;3.33;;;3.03;;
38779;SDS011;29273;49.962;9.768;2023-06-10T08:16:05;2.85;;;2.65;;
38779;SDS011;29273;49.962;9.768;2023-06-10T08:18:30;2.92;;;2.55;;
38779;SDS011;29273;49.962;9.768;2023-06-10T08:20:56;2.65;;;2.45;;
38779;SDS011;29273;49.962;9.768;2023-06-10T08:23:22;2.40;;;2.17;;
38779;SDS011;29273;49.962;9.768;2023-06-10T08:25:47;3.05;;;2.75;;
38779;SDS011;29273;49.962;9.768;2023-06-10T08:28:13;3.75;;;2.53;;
38779;SDS011;29273;49.962;9.768;2023-06-10T08:30:38;3.22;;;2.70;;
38779;SDS011;29273;49.962;9.768;2023-06-10T08:33:04;2.63;;;2.42;;
38779;SDS011;29273;49.962;9.768;2023-06-10T08:35:29;3.55;;;2.80;;
38779;SDS011;29273;49.962;9.768;2023-06-10T08:37:55;2.72;;;2.53;;
38779;SDS011;29273;49.962;9.768;2023-06-10T08:40:21;2.47;;;2.28;;
38779;SDS011;29273;49.962;9.768;2023-06-10T08:42:54;2.70;;;2.50;;
38779;SDS011;29273;49.962;9.768;2023-06-10T08:45:31;2.65;;;2.45;;
38779;SDS011;29273;49.962;9.768;2023-06-10T08:48:00;2.75;;;2.45;;
38779;SDS011;29273;49.962;9.768;2023-06-10T08:50:29;2.80;;;2.60;;
38779;SDS011;29273;49.962;9.768;2023-06-10T08:52:57;3.13;;;2.75;;
38779;SDS011;29273;49.962;9.768;2023-06-10T08:55:27;2.80;;;2.50;;
38779;SDS011;29273;49.962;9.768;2023-06-10T08:58:01;2.67;;;2.47;;
38779;SDS011;29273;49.962;9.768;2023-06-10T09:00:28;2.13;;;1.90;;
38779;SDS011;29273;49.962;9.768;2023-06-10T09:02:54;2.80;;;2.55;;
38779;SDS011;29273;49.962;9.768;2023-06-10T09:05:20;3.30;;;2.65;;
38779;SDS011;29273;49.962;9.768;2023-06-10T09:07:47;4.07;;;2.55;;
38779;SDS011;29273;49.962;9.768;2023-06-10T09:10:13;2.58;;;2.38;;
38779;SDS011;29273;49.962;9.768;2023-06-10T09:12:39;2.85;;;2.33;;
38779;SDS011;29273;49.962;9.768;2023-06-10T09:15:05;2.35;;;2.15;;
38779;SDS011;29273;49.962;9.768;2023-06-10T09:17:31;2.88;;;2.63;;
38779;SDS011;29273;49.962;9.768;2023-06-10T09:19:57;3.17;;;2.45;;
38779;SDS011;29273;49.962;9.768;2023-06-10T09:22:23;2.50;;;2.30;;
38779;SDS011;29273;49.962;9.768;2023-06-10T09:24:49;2.67;;;2.47;;
38779;SDS011;29273;49.962;9.768;2023-06-10T09:27:15;2.38;;;2.17;;
38779;SDS011;29273;49.962;9.768;2023-06-10T09:29:54;4.07;;;2.00;;
38779;SDS011;29273;49.962;9.768;2023-06-10T09:32:20;2.40;;;2.20;;
38779;SDS011;29273;49.962;9.768;2023-06-10T09:34:46;2.30;;;2.10;;
38779;SDS011;29273;49.962;9.768;2023-06-10T09:37:13;2.15;;;2.00;;
38779;SDS011;29273;49.962;9.768;2023-06-10T09:39:44;2.22;;;2.03;;
38779;SDS011;29273;49.962;9.768;2023-06-10T09:42:16;2.28;;;2.00;;
38779;SDS011;29273;49.962;9.768;2023-06-10T09:44:48;2.08;;;1.85;;
38779;SDS011;29273;49.962;9.768;2023-06-10T09:49:44;2.05;;;1.85;;
38779;SDS011;29273;49.962;9.768;2023-06-10T09:52:10;2.42;;;1.85;;
38779;SDS011;29273;49.962;9.768;2023-06-10T09:54:35;2.03;;;1.83;;
38779;SDS011;29273;49.962;9.768;2023-06-10T09:57:01;2.40;;;2.20;;
38779;SDS011;29273;49.962;9.768;2023-06-10T09:59:32;2.03;;;1.90;;
38779;SDS011;29273;49.962;9.768;2023-06-10T10:02:00;2.30;;;2.10;;
38779;SDS011;29273;49.962;9.768;2023-06-10T10:04:26;1.90;;;1.80;;
38779;SDS011;29273;49.962;9.768;2023-06-10T10:06:52;1.77;;;1.67;;
38779;SDS011;29273;49.962;9.768;2023-06-10T10:09:17;2.33;;;2.10;;
38779;SDS011;29273;49.962;9.768;2023-06-10T10:11:43;1.88;;;1.77;;
38779;SDS011;29273;49.962;9.768;2023-06-10T10:14:09;2.17;;;1.98;;
38779;SDS011;29273;49.962;9.768;2023-06-10T10:16:36;2.10;;;1.90;;
38779;SDS011;29273;49.962;9.768;2023-06-10T10:19:15;2.17;;;1.98;;
38779;SDS011;29273;49.962;9.768;2023-06-10T10:21:56;2.20;;;2.00;;
38779;SDS011;29273;49.962;9.768;2023-06-10T10:24:33;2.15;;;1.88;;
38779;SDS011;29273;49.962;9.768;2023-06-10T10:27:01;1.80;;;1.70;;
38779;SDS011;29273;49.962;9.768;2023-06-10T10:29:37;1.88;;;1.75;;
38779;SDS011;29273;49.962;9.768;2023-06-10T10:32:04;2.08;;;1.88;;
38779;SDS011;29273;49.962;9.768;2023-06-10T10:34:39;2.08;;;1.90;;
38779;SDS011;29273;49.962;9.768;2023-06-10T10:37:13;1.80;;;1.70;;
38779;SDS011;29273;49.962;9.768;2023-06-10T10:39:39;2.20;;;2.00;;
38779;SDS011;29273;49.962;9.768;2023-06-10T10:42:05;1.70;;;1.50;;
38779;SDS011;29273;49.962;9.768;2023-06-10T10:44:34;1.70;;;1.60;;
38779;SDS011;29273;49.962;9.768;2023-06-10T10:47:02;2.45;;;1.88;;
38779;SDS011;29273;49.962;9.768;2023-06-10T10:49:28;1.67;;;1.58;;
38779;SDS011;29273;49.962;9.768;2023-06-10T10:51:58;2.75;;;2.30;;
38779;SDS011;29273;49.962;9.768;2023-06-10T10:54:35;2.05;;;1.85;;
38779;SDS011;29273;49.962;9.768;2023-06-10T10:59:51;2.28;;;2.08;;
38779;SDS011;29273;49.962;9.768;2023-06-10T11:02:36;1.95;;;1.85;;
38779;SDS011;29273;49.962;9.768;2023-06-10T11:05:09;1.90;;;1.75;;
38779;SDS011;29273;49.962;9.768;2023-06-10T11:07:35;2.10;;;1.98;;
38779;SDS011;29273;49.962;9.768;2023-06-10T11:10:02;2.33;;;2.13;;
38779;SDS011;29273;49.962;9.768;2023-06-10T11:15:10;2.33;;;2.13;;
38779;SDS011;29273;49.962;9.768;2023-06-10T11:31:19;2.00;;;1.80;;
38779;SDS011;29273;49.962;9.768;2023-06-10T11:33:46;1.98;;;1.80;;
38779;SDS011;29273;49.962;9.768;2023-06-10T11:36:12;1.75;;;1.65;;
38779;SDS011;29273;49.962;9.768;2023-06-10T11:38:38;2.13;;;1.92;;
38779;SDS011;29273;49.962;9.768;2023-06-10T11:41:04;2.20;;;2.00;;
38779;SDS011;29273;49.962;9.768;2023-06-10T11:43:30;1.92;;;1.80;;
38779;SDS011;29273;49.962;9.768;2023-06-10T11:45:55;2.20;;;1.83;;
38779;SDS011;29273;49.962;9.768;2023-06-10T11:48:21;2.53;;;1.67;;
38779;SDS011;29273;49.962;9.768;2023-06-10T11:50:47;1.85;;;1.65;;
38779;SDS011;29273;49.962;9.768;2023-06-10T11:53:12;1.85;;;1.60;;
38779;SDS011;29273;49.962;9.768;2023-06-10T11:58:17;2.30;;;1.65;;
38779;SDS011;29273;49.962;9.768;2023-06-10T12:00:51;1.83;;;1.67;;
38779;SDS011;29273;49.962;9.768;2023-06-10T12:03:18;1.70;;;1.60;;
38779;SDS011;29273;49.962;9.768;2023-06-10T12:06:01;1.70;;;1.60;;
38779;SDS011;29273;49.962;9.768;2023-06-10T12:08:27;1.63;;;1.52;;
38779;SDS011;29273;49.962;9.768;2023-06-10T12:10:53;1.77;;;1.67;;
38779;SDS011;29273;49.962;9.768;2023-06-10T12:13:19;1.60;;;1.48;;
38779;SDS011;29273;49.962;9.768;2023-06-10T12:15:45;1.73;;;1.60;;
38779;SDS011;29273;49.962;9.768;2023-06-10T12:18:23;1.67;;;1.58;;
38779;SDS011;29273;49.962;9.768;2023-06-10T12:20:50;2.15;;;1.55;;
38779;SDS011;29273;49.962;9.768;2023-06-10T12:23:17;2.45;;;1.80;;
38779;SDS011;29273;49.962;9.768;2023-06-10T12:25:50;1.70;;;1.60;;
38779;SDS011;29273;49.962;9.768;2023-06-10T12:28:22;2.47;;;1.90;;
38779;SDS011;29273;49.962;9.768;2023-06-10T12:30:49;1.63;;;1.52;;
38779;SDS011;29273;49.962;9.768;2023-06-10T12:33:18;2.00;;;1.60;;
38779;SDS011;29273;49.962;9.768;2023-06-10T12:35:48;1.73;;;1.60;;
38779;SDS011;29273;49.962;9.768;2023-06-10T12:38:17;1.60;;;1.50;;
38779;SDS011;29273;49.962;9.768;2023-06-10T12:40:46;1.75;;;1.65;;
38779;SDS011;29273;49.962;9.768;2023-06-10T12:43:12;1.90;;;1.80;;
38779;SDS011;29273;49.962;9.768;2023-06-10T12:45:39;1.63;;;1.52;;
38779;SDS011;29273;49.962;9.768;2023-06-10T12:48:21;2.10;;;1.90;;
38779;SDS011;29273;49.962;9.768;2023-06-10T12:50:51;2.13;;;1.98;;
38779;SDS011;29273;49.962;9.768;2023-06-10T12:53:21;1.58;;;1.48;;
38779;SDS011;29273;49.962;9.768;2023-06-10T12:55:48;2.00;;;1.80;;
38779;SDS011;29273;49.962;9.768;2023-06-10T12:58:14;2.45;;;1.40;;
38779;SDS011;29273;49.962;9.768;2023-06-10T13:00:40;1.48;;;1.38;;
38779;SDS011;29273;49.962;9.768;2023-06-10T13:03:07;1.83;;;1.73;;
38779;SDS011;29273;49.962;9.768;2023-06-10T13:05:33;1.77;;;1.67;;
38779;SDS011;29273;49.962;9.768;2023-06-10T13:08:01;1.52;;;1.42;;
38779;SDS011;29273;49.962;9.768;2023-06-10T13:10:27;1.55;;;1.45;;
38779;SDS011;29273;49.962;9.768;2023-06-10T13:12:52;1.60;;;1.50;;
38779;SDS011;29273;49.962;9.768;2023-06-10T13:15:19;1.70;;;1.60;;
38779;SDS011;29273;49.962;9.768;2023-06-10T13:17:45;1.75;;;1.65;;
38779;SDS011;29273;49.962;9.768;2023-06-10T13:20:15;1.55;;;1.45;;
38779;SDS011;29273;49.962;9.768;2023-06-10T13:22:41;2.38;;;1.67;;
38779;SDS011;29273;49.962;9.768;2023-06-10T13:25:07;1.73;;;1.63;;
38779;SDS011;29273;49.962;9.768;2023-06-10T13:27:33;1.88;;;1.77;;
38779;SDS011;29273;49.962;9.768;2023-06-10T13:29:59;1.77;;;1.52;;
38779;SDS011;29273;49.962;9.768;2023-06-10T13:32:25;1.60;;;1.50;;
38779;SDS011;29273;49.962;9.768;2023-06-10T13:34:51;1.55;;;1.45;;
38779;SDS011;29273;49.962;9.768;2023-06-10T13:37:16;1.55;;;1.40;;
38779;SDS011;29273;49.962;9.768;2023-06-10T13:39:45;1.52;;;1.42;;
38779;SDS011;29273;49.962;9.768;2023-06-10T13:42:16;1.40;;;1.30;;
38779;SDS011;29273;49.962;9.768;2023-06-10T13:44:42;1.77;;;1.52;;
38779;SDS011;29273;49.962;9.768;2023-06-10T13:47:08;1.55;;;1.45;;
38779;SDS011;29273;49.962;9.768;2023-06-10T13:49:33;2.00;;;1.63;;
38779;SDS011;29273;49.962;9.768;2023-06-10T13:51:59;1.65;;;1.40;;
38779;SDS011;29273;49.962;9.768;2023-06-10T13:54:24;1.80;;;1.70;;
38779;SDS011;29273;49.962;9.768;2023-06-10T13:56:50;1.70;;;1.60;;
38779;SDS011;29273;49.962;9.768;2023-06-10T13:59:15;1.75;;;1.60;;
38779;SDS011;29273;49.962;9.768;2023-06-10T14:01:41;1.75;;;1.50;;
38779;SDS011;29273;49.962;9.768;2023-06-10T14:04:07;1.73;;;1.63;;
38779;SDS011;29273;49.962;9.768;2023-06-10T14:06:33;1.70;;;1.60;;
38779;SDS011;29273;49.962;9.768;2023-06-10T14:09:01;1.70;;;1.60;;
38779;SDS011;29273;49.962;9.768;2023-06-10T14:11:27;2.10;;;1.60;;
38779;SDS011;29273;49.962;9.768;2023-06-10T14:13:53;1.60;;;1.50;;
38779;SDS011;29273;49.962;9.768;2023-06-10T14:16:21;1.65;;;1.55;;
38779;SDS011;29273;49.962;9.768;2023-06-10T14:18:47;1.85;;;1.70;;
38779;SDS011;29273;49.962;9.768;2023-06-10T14:21:12;1.80;;;1.70;;
38779;SDS011;29273;49.962;9.768;2023-06-10T14:23:38;1.55;;;1.45;;
38779;SDS011;29273;49.962;9.768;2023-06-10T14:26:04;1.55;;;1.45;;
38779;SDS011;29273;49.962;9.768;2023-06-10T14:28:31;1.52;;;1.42;;
38779;SDS011;29273;49.962;9.768;2023-06-10T14:30:56;1.83;;;1.73;;
38779;SDS011;29273;49.962;9.768;2023-06-10T14:33:22;1.70;;;1.60;;
38779;SDS011;29273;49.962;9.768;2023-06-10T14:35:48;1.55;;;1.45;;
38779;SDS011;29273;49.962;9.768;2023-06-10T14:38:13;1.75;;;1.65;;
38779;SDS011;29273;49.962;9.768;2023-06-10T14:40:39;1.63;;;1.52;;
38779;SDS011;29273;49.962;9.768;2023-06-10T14:43:04;1.85;;;1.75;;
38779;SDS011;29273;49.962;9.768;2023-06-10T14:45:38;1.70;;;1.60;;
38779;SDS011;29273;49.962;9.768;2023-06-10T14:48:04;1.80;;;1.70;;
38779;SDS011;29273;49.962;9.768;2023-06-10T14:50:30;1.67;;;1.58;;
38779;SDS011;29273;49.962;9.768;2023-06-10T14:52:57;2.67;;;1.67;;
38779;SDS011;29273;49.962;9.768;2023-06-10T14:55:23;1.60;;;1.50;;
38779;SDS011;29273;49.962;9.768;2023-06-10T14:57:49;1.85;;;1.75;;
38779;SDS011;29273;49.962;9.768;2023-06-10T15:00:15;1.70;;;1.60;;
38779;SDS011;29273;49.962;9.768;2023-06-10T15:02:44;2.17;;;1.60;;
38779;SDS011;29273;49.962;9.768;2023-06-10T15:05:10;4.50;;;1.67;;
38779;SDS011;29273;49.962;9.768;2023-06-10T15:07:35;1.60;;;1.50;;
38779;SDS011;29273;49.962;9.768;2023-06-10T15:10:01;1.58;;;1.48;;
38779;SDS011;29273;49.962;9.768;2023-06-10T15:12:26;1.58;;;1.40;;
38779;SDS011;29273;49.962;9.768;2023-06-10T15:14:53;1.52;;;1.42;;
38779;SDS011;29273;49.962;9.768;2023-06-10T15:17:18;1.42;;;1.30;;